Valdez, AK

6:44 AM AKST on December 22, 2014 (GMT -0900)
Valdez | Change Station
CLOSE
Current Station
Airport
Location: Valdez Airport,
Elevation: 121 ft
Nearby Weather Stations

Elev 121 ft 61.13 °N, 146.25 °W | Updated 8 minutes ago

Overcast
Overcast
30 °F
Feels Like 30 °F
N
0
Wind Variable Wind from North

Today
High -- | Low -- °F
--% Chance of Precip.
Yesterday
High -- | Low -- °F
Precip. -- in
9:59 AM 3:28 PM
New Moon, 0% visible
Pressure 29.69 in
Visibility 3.0 miles
Clouds Few 100 ft
Mostly Cloudy 1500 ft
Overcast 3000 ft
Dew Point 27 °F
Humidity 86%
Rainfall 0.01 in
Snow Depth Not available.
UV 0 out of 12
Pollen Not available.
Air Quality Not available.
Flu Activity Not available.
METAR PAVD 221536Z 00000KT 3SM FEW001 BKN015 OVC030 M01/M03 A2969 RMK AO1 1510Z WEA: -SN BR TWR WND 30006KT FIRST P0001

More Conditions Fewer Conditions

Pressure 29.69 in
Visibility 3.0 miles
Clouds Few 100 ft
Mostly Cloudy 1500 ft
Overcast 3000 ft
Dew Point 27 °F
Humidity 86%
Rainfall 0.01 in
Snow Depth Not available.
UV 0 out of 12
Pollen Not available.
Air Quality Not available.
Flu Activity Not available.
METAR PAVD 221536Z 00000KT 3SM FEW001 BKN015 OVC030 M01/M03 A2969 RMK AO1 1510Z WEA: -SN BR TWR WND 30006KT FIRST P0001

More Conditions Fewer Conditions

10-Day Weather Forecast

Almanac

Astronomy

Dec. 22, 2014 Rise Set
Actual Time
Civil Twilight
Nautical Twilight
Astronomical Twilight
Moon
Length of Visible Light
Length of Day
Tomorrow will be .
, % of the Moon is Illuminated

Today's Extremes

State Highs State Lows

Community

WunderPhotos

Upload Photos

1,779,620 photos uploaded!

WunderBlogs® & News

Nearby

Air Quality

  Air Quality AQ Index Pollutant
Not available.

Snow Depth

Station Depth Elevation

Earthquake Activity

City Distance Mag. Time & Date
Minimum magnitude displayed is 2.5.

Coastal Water Temperatures

Place Temperature

Nearby Weather Stations